• Join FlightAware (Why Join?)
  • Login
  • US Flag 
01:59PM EDT


 

Airport Tracker/Info


-or-


 

Live Flight TrackerFlight Track Log ✈ ASQ5261 ✈ 23-Apr-2012 ✈ KSHV - KMEM

Flight Track Log - Related Links

Times and Time Zones

All times are in EDT time to prevent confusion due to time zone crossing. See the ASQ5261 flight status page for this flight to view local times or setup timezone preferences in your user account.

Time Position Orientation Groundspeed Altitude Reporting Facility
EDT Latitude Longitude Course Direction KTS MPH feet Rate Location/Type
12:36PM 32.4572 -93.8461 340° North 173 199 900  Level Fort Worth Center
12:37PM 32.5247 -93.8753 46° Northeast 215 247 4,400 2,760 Climbing Fort Worth Center
12:38PM 32.5753 -93.8142 52° Northeast 249 287 7,600 2,400 Climbing Fort Worth Center
12:40PM 32.6392 -93.7156 53° Northeast 303 349 10,300 1,560 Climbing Fort Worth Center
12:41PM 32.6931 -93.6292 53° Northeast 308 354 11,400 1,440 Climbing Fort Worth Center
12:42PM 32.7428 -93.5506 52° Northeast 328 377 13,200 1,740 Climbing Fort Worth Center
12:43PM 32.8086 -93.4489 53° Northeast 340 391 14,900 1,800 Climbing Fort Worth Center
12:44PM 32.8603 -93.3675 54° Northeast 352 405 16,900 1,500 Climbing Fort Worth Center
12:45PM 32.9256 -93.2606 52° Northeast 352 405 18,000 1,140 Climbing Fort Worth Center
12:46PM 32.9831 -93.1714 52° Northeast 364 419 19,200 1,080 Climbing Fort Worth Center
12:48PM 33.1100 -92.9786 51° Northeast 393 452 21,300 1,020 Climbing Memphis Center
12:49PM 33.1769 -92.8789 57° Northeast 388 447 22,300 960 Climbing Memphis Center
12:50PM 33.2417 -92.7617 52° Northeast 388 447 23,300 780 Climbing Memphis Center
12:51PM 33.3061 -92.6639 55° Northeast 388 447 23,900 600 Climbing Memphis Center
12:52PM 33.3708 -92.5536 53° Northeast 393 452 24,500 600 Climbing Memphis Center
12:53PM 33.4436 -92.4383 53° Northeast 406 467 25,100 600 Climbing Memphis Center
12:54PM 33.5122 -92.3306 50° Northeast 412 474 25,700 600 Climbing Memphis Center
12:55PM 33.5892 -92.2200 52° Northeast 410 472 26,300 600 Climbing Memphis Center
12:56PM 33.6617 -92.1092 53° Northeast 415 478 26,900 300 Climbing Memphis Center
12:57PM 33.7342 -91.9933 52° Northeast 420 483 27,000  Climbing Memphis Center
12:58PM 33.8067 -91.8797 51° Northeast 426 490 27,000  Level Memphis Center
12:59PM 33.8831 -91.7658 52° Northeast 432 497 27,000  Level Memphis Center
01:00PM 33.9594 -91.6494 53° Northeast 437 503 27,000  Level Memphis Center
01:01PM 34.0358 -91.5278 52° Northeast 442 509 27,000 -900 Level Memphis Center
01:02PM 34.1119 -91.4083 54° Northeast 447 514 25,200 -2,100 Descending Memphis Center
01:03PM 34.1817 -91.2936 51° Northeast 434 499 22,900 -2,340 Descending Memphis Center
01:04PM 34.2556 -91.1839 54° Northeast 421 484 20,600 -2,400 Descending Memphis Center
01:05PM 34.3231 -91.0714 51° Northeast 409 471 18,200 -2,100 Descending Memphis Center
01:06PM 34.4008 -90.9564 53° Northeast 400 460 16,400 -1,860 Descending Memphis Center
01:07PM 34.4639 -90.8558 54° Northeast 389 448 14,500 -1,980 Descending Memphis Center
01:08PM 34.5247 -90.7528 52° Northeast 377 434 12,500 -1,980 Descending Memphis Center
01:09PM 34.5856 -90.6572 52° Northeast 362 417 10,600 -1,260 Descending Memphis Center
01:10PM 34.6442 -90.5667 59° Northeast 351 404 10,000 -660 Descending Memphis Center
01:11PM 34.7233 -90.4075 64° Northeast 292 336 8,900 -840 Descending FAA TRACON SMA TRACON (SMA)
01:12PM 34.7461 -90.3497 65° Northeast 273 314 8,100 -1,200 Descending FAA TRACON SMA TRACON (SMA)
01:13PM 34.7667 -90.2972 65° Northeast 269 310 7,300 -1,380 Descending FAA TRACON SMA TRACON (SMA)
01:13PM 34.7869 -90.2433 75° East 262 302 6,300 -1,620 Descending FAA TRACON SMA TRACON (SMA)
01:14PM 34.7994 -90.1883 76° East 247 284 5,200 -1,620 Descending FAA TRACON SMA TRACON (SMA)
01:15PM 34.8119 -90.1286 77° East 261 300 4,200 -900 Descending FAA TRACON SMA TRACON (SMA)
01:15PM 34.8231 -90.0711 65° Northeast 246 283 4,000 -240 Descending FAA TRACON SMA TRACON (SMA)
01:16PM 34.8386 -90.0300 29° Northeast 200 230 3,900 -780 Descending FAA TRACON SMA TRACON (SMA)
01:17PM 34.8653 -90.0117 30° Northeast 180 207 3,000 -1,260 Descending FAA TRACON SMA TRACON (SMA)
01:17PM 34.8953 -89.9906 North 179 206 2,300 -780 Descending FAA TRACON SMA TRACON (SMA)
01:18PM 34.9286 -89.9844 358° North 179 206 2,000 -420 Descending FAA TRACON SMA TRACON (SMA)
01:19PM 34.9558 -89.9856 359° North 163 188 1,800 -600 Descending FAA TRACON SMA TRACON (SMA)
01:19PM 34.9828 -89.9861 358° North 145 167 1,200 -840 Descending FAA TRACON SMA TRACON (SMA)
01:20PM 35.0083 -89.9869 360° North 134 154 700 -540 Descending FAA TRACON SMA TRACON (SMA)
01:21PM 35.0183 -89.9869 360° North 135 155 500 -300 Descending FAA TRACON SMA TRACON (SMA)